Terminal Aerodrome Forecast
Issued by NWS St Louis, MO

Home | Current Version | Previous Version | Text Only | Print | Product List | Glossary On
Versions: 1 2 3 4 5 6 7 8 9 10 11 12 13 14 15 16 17 18
217
FTUS43 KLSX 171732
TAFCOU
TAF
KCOU 171732Z 1718/1818 11007KT P6SM FEW250
     FM180900 15010KT P6SM BKN020
     FM181200 25014G25KT P6SM SCT030
     FM181500 28019G34KT P6SM SCT035=

USA.gov is the U.S. government's official web portal to all federal, state and local government web resources and services.